createdAt,value
2019-05-03T00:00:31.951Z,12.43
2019-05-03T00:05:41.880Z,10.35
2019-05-03T00:10:51.689Z,11.85
2019-05-03T00:16:21.819Z,12.05
2019-05-03T00:21:29.584Z,9.55
2019-05-03T00:26:37.922Z,9.10
2019-05-03T00:31:47.028Z,9.00
2019-05-03T00:36:55.792Z,8.63
2019-05-03T00:42:04.808Z,11.70
2019-05-03T00:47:13.878Z,11.18
2019-05-03T00:52:23.120Z,8.95
2019-05-03T00:57:32.477Z,9.60
2019-05-03T01:02:42.329Z,8.15
2019-05-03T01:07:52.388Z,7.92
2019-05-03T01:13:01.691Z,7.50
2019-05-03T01:18:12.334Z,6.75
2019-05-03T01:23:21.938Z,7.75
2019-05-03T01:28:32.342Z,7.53
2019-05-03T01:33:40.336Z,8.03
2019-05-03T01:38:48.641Z,7.65
2019-05-03T01:43:57.237Z,7.28
2019-05-03T01:49:06.920Z,7.65
2019-05-03T01:54:15.319Z,7.50
2019-05-03T01:59:23.620Z,6.75
2019-05-03T02:04:33.004Z,7.35
2019-05-03T02:09:41.711Z,7.47
2019-05-03T02:14:51.583Z,8.08
2019-05-03T02:19:59.009Z,8.47
2019-05-03T02:25:08.513Z,7.17
2019-05-03T02:30:17.115Z,7.30
2019-05-03T02:35:25.005Z,7.00
2019-05-03T02:40:33.870Z,6.62
2019-05-03T02:45:45.702Z,6.90
2019-05-03T02:50:56.028Z,6.50
2019-05-03T03:01:11.797Z,6.05
2019-05-03T03:06:23.048Z,7.67
2019-05-03T03:11:32.160Z,6.45
2019-05-03T03:16:40.833Z,6.37
2019-05-03T03:21:50.510Z,5.85
2019-05-03T03:27:00.222Z,6.37
2019-05-03T03:32:12.086Z,6.42
2019-05-03T03:37:21.077Z,7.45
2019-05-03T03:42:30.753Z,6.20
2019-05-03T03:47:40.073Z,6.75
2019-05-03T03:52:49.258Z,6.30
2019-05-03T03:57:57.638Z,6.08
2019-05-03T04:03:06.315Z,6.42
2019-05-03T04:08:28.213Z,7.28
2019-05-03T04:13:39.231Z,6.47
2019-05-03T04:18:49.289Z,6.33
2019-05-03T04:23:58.183Z,5.80
2019-05-03T04:29:07.529Z,5.95
2019-05-03T04:34:16.366Z,6.20
2019-05-03T04:39:25.554Z,6.00
2019-05-03T04:44:35.761Z,6.40
2019-05-03T04:49:42.771Z,5.40
2019-05-03T04:54:56.025Z,5.45
2019-05-03T05:00:06.008Z,5.72
2019-05-03T05:05:15.337Z,6.62
2019-05-03T05:10:27.804Z,5.22
2019-05-03T05:15:35.715Z,5.55
2019-05-03T05:20:45.390Z,5.75
2019-05-03T05:25:56.825Z,5.92
2019-05-03T05:31:05.363Z,5.12
2019-05-03T05:36:15.346Z,5.53
2019-05-03T05:41:24.502Z,4.15
2019-05-03T05:46:35.072Z,4.70
2019-05-03T05:52:04.909Z,4.90
2019-05-03T05:57:34.639Z,4.37
2019-05-03T06:02:44.699Z,4.58
2019-05-03T06:07:54.827Z,4.80
2019-05-03T06:13:04.915Z,4.35
2019-05-03T06:18:14.646Z,4.40
2019-05-03T06:23:24.776Z,4.20
2019-05-03T06:28:35.316Z,3.90
2019-05-03T06:33:45.050Z,4.10
2019-05-03T06:38:54.648Z,4.55
2019-05-03T06:44:04.250Z,4.50
2019-05-03T06:49:11.664Z,4.40
2019-05-03T06:54:25.446Z,4.53
2019-05-03T06:59:31.173Z,4.10
2019-05-03T07:04:40.494Z,4.40
2019-05-03T07:14:57.209Z,4.10
2019-05-03T07:20:05.527Z,4.00
2019-05-03T07:25:14.964Z,4.17
2019-05-03T07:30:24.765Z,4.53
2019-05-03T07:35:32.447Z,3.92
2019-05-03T07:40:41.168Z,4.10
2019-05-03T07:45:49.130Z,4.30
2019-05-03T07:50:57.985Z,3.70
2019-05-03T07:56:07.659Z,4.03
2019-05-03T08:01:17.659Z,3.72
2019-05-03T08:06:25.739Z,3.90
2019-05-03T08:11:35.187Z,4.30
2019-05-03T08:16:45.482Z,4.50
2019-05-03T08:21:52.992Z,4.95
2019-05-03T08:27:01.469Z,4.33
2019-05-03T08:32:09.668Z,4.23
2019-05-03T08:37:19.907Z,4.35
2019-05-03T08:42:28.098Z,5.17
2019-05-03T08:47:36.195Z,4.92
2019-05-03T08:52:45.345Z,5.92
2019-05-03T08:57:55.146Z,6.37
2019-05-03T09:03:05.553Z,5.00
2019-05-03T09:08:15.738Z,4.33
2019-05-03T09:13:25.132Z,3.95
2019-05-03T09:18:35.118Z,4.25
2019-05-03T09:23:44.955Z,4.20
2019-05-03T09:28:52.540Z,4.50
2019-05-03T09:34:00.607Z,4.47
2019-05-03T09:39:10.074Z,4.03
2019-05-03T09:44:17.841Z,4.67
2019-05-03T09:49:25.916Z,4.10
2019-05-03T09:54:34.806Z,9.08
2019-05-03T09:59:55.760Z,4.62
2019-05-03T10:04:52.698Z,4.17
2019-05-03T10:10:00.842Z,4.80
2019-05-03T10:15:10.961Z,4.45
2019-05-03T10:20:20.989Z,6.00
2019-05-03T10:25:30.094Z,6.17
2019-05-03T10:30:39.488Z,11.43
2019-05-03T10:35:59.810Z,35.92
2019-05-03T10:41:09.042Z,31.30
2019-05-03T10:46:16.300Z,19.48
2019-05-03T10:51:25.034Z,32.23
2019-05-03T10:56:35.750Z,32.15
2019-05-03T11:01:45.294Z,25.85
2019-05-03T11:06:54.943Z,51.83
2019-05-03T11:12:05.318Z,8.98
2019-05-03T11:17:14.747Z,9.20
2019-05-03T11:22:22.552Z,8.77
2019-05-03T11:27:31.480Z,7.08
2019-05-03T11:32:40.943Z,8.95
2019-05-03T11:37:49.989Z,12.98
2019-05-03T11:42:59.177Z,17.50
2019-05-03T11:48:07.754Z,10.03
2019-05-03T11:53:17.660Z,9.17
2019-05-03T11:58:27.248Z,7.45
2019-05-03T12:03:36.599Z,6.70
2019-05-03T12:08:44.751Z,6.95
2019-05-03T12:14:02.411Z,7.22
2019-05-03T12:19:15.724Z,7.62
2019-05-03T12:24:11.660Z,8.60
2019-05-03T12:29:20.282Z,9.78
2019-05-03T12:34:28.080Z,7.12
2019-05-03T12:39:36.538Z,5.92
2019-05-03T12:44:45.900Z,7.67
2019-05-03T12:50:15.652Z,6.92
2019-05-03T12:55:25.792Z,6.83
2019-05-03T13:00:36.855Z,7.42
2019-05-03T13:05:44.950Z,6.47
2019-05-03T13:10:52.591Z,6.42
2019-05-03T13:16:04.476Z,6.37
2019-05-03T13:21:17.143Z,6.65
2019-05-03T13:26:25.411Z,6.95
2019-05-03T13:31:34.686Z,6.35
2019-05-03T13:36:45.476Z,7.00
2019-05-03T13:46:58.436Z,6.53
2019-05-03T13:52:06.828Z,7.30
2019-05-03T13:57:15.802Z,13.20
2019-05-03T14:02:26.800Z,9.00
2019-05-03T14:07:35.324Z,7.60
2019-05-03T14:12:45.353Z,7.42
2019-05-03T14:17:52.494Z,8.00
2019-05-03T14:23:02.281Z,7.53
2019-05-03T14:28:16.083Z,7.63
2019-05-03T14:33:18.629Z,7.28
2019-05-03T14:38:28.204Z,7.42
2019-05-03T14:43:37.249Z,7.25
2019-05-03T14:48:46.057Z,7.87
2019-05-03T14:53:57.763Z,8.53
2019-05-03T14:59:07.604Z,7.72
2019-05-03T15:04:15.290Z,8.70
2019-05-03T15:09:25.148Z,8.68
2019-05-03T15:14:34.600Z,10.75
2019-05-03T15:19:46.532Z,10.20
2019-05-03T15:24:54.563Z,10.63
2019-05-03T15:30:04.965Z,12.10
2019-05-03T15:35:15.075Z,11.75
2019-05-03T15:40:22.284Z,12.65
2019-05-03T15:45:31.954Z,12.98
2019-05-03T15:50:39.460Z,14.28
2019-05-03T15:55:49.197Z,12.05
2019-05-03T16:00:56.540Z,12.90
2019-05-03T16:06:06.778Z,12.50
2019-05-03T16:11:15.498Z,12.43
2019-05-03T16:16:24.676Z,12.75
2019-05-03T16:21:34.179Z,12.05
2019-05-03T16:26:44.550Z,10.98
2019-05-03T16:31:51.854Z,10.08
2019-05-03T16:36:58.859Z,8.55
2019-05-03T16:42:06.830Z,7.28
2019-05-03T16:47:15.662Z,7.42
2019-05-03T16:52:45.548Z,7.12
2019-05-03T16:57:54.931Z,7.60
2019-05-03T17:03:02.207Z,6.80
2019-05-03T17:08:11.515Z,6.60
2019-05-03T17:13:19.303Z,7.33
2019-05-03T17:18:27.740Z,7.50
2019-05-03T17:23:35.963Z,7.75
2019-05-03T17:28:44.797Z,9.13
2019-05-03T17:33:54.504Z,7.40
2019-05-03T17:39:04.359Z,6.62
2019-05-03T17:44:14.439Z,5.83
2019-05-03T17:49:22.344Z,6.40
2019-05-03T17:54:30.278Z,5.87
2019-05-03T17:59:39.410Z,5.58
2019-05-03T18:04:48.675Z,5.83
2019-05-03T18:09:57.077Z,5.75
2019-05-03T18:15:25.118Z,5.78
2019-05-03T18:20:34.486Z,5.17
2019-05-03T18:25:41.618Z,5.40
2019-05-03T18:30:50.421Z,5.45
2019-05-03T18:35:58.824Z,5.17
2019-05-03T18:41:06.850Z,5.70
2019-05-03T18:46:16.423Z,5.50
2019-05-03T18:51:25.244Z,5.30
2019-05-03T18:56:34.671Z,5.92
2019-05-03T19:01:42.352Z,5.45
2019-05-03T19:07:02.059Z,4.92
2019-05-03T19:12:00.328Z,4.42
2019-05-03T19:17:09.246Z,4.42
2019-05-03T19:22:16.448Z,4.80
2019-05-03T19:27:25.163Z,7.83
2019-05-03T19:32:35.633Z,4.70
2019-05-03T19:37:46.387Z,4.72
2019-05-03T19:42:52.145Z,4.75
2019-05-03T19:48:00.028Z,5.20
2019-05-03T19:53:09.088Z,5.67
2019-05-03T19:58:16.619Z,5.70
2019-05-03T20:03:25.767Z,5.37
2019-05-03T20:08:35.194Z,5.30
2019-05-03T20:13:44.975Z,5.53
2019-05-03T20:18:52.431Z,5.47
2019-05-03T20:24:00.411Z,5.60
2019-05-03T20:29:08.324Z,6.67
2019-05-03T20:39:48.438Z,7.05
2019-05-03T20:44:56.755Z,6.80
2019-05-03T20:50:08.192Z,5.83
2019-05-03T20:55:17.641Z,5.60
2019-05-03T21:00:26.377Z,5.90
2019-05-03T21:05:35.387Z,5.60
2019-05-03T21:10:44.555Z,6.00
2019-05-03T21:15:52.805Z,5.80
2019-05-03T21:21:01.692Z,6.78
2019-05-03T21:26:13.378Z,6.70
2019-05-03T21:31:51.269Z,6.42
2019-05-03T21:36:59.641Z,5.87
2019-05-03T21:42:07.317Z,8.50
2019-05-03T21:47:16.967Z,8.58
2019-05-03T21:52:25.367Z,7.13
2019-05-03T21:57:34.463Z,7.92
2019-05-03T22:02:43.214Z,7.12
2019-05-03T22:07:51.109Z,5.80
2019-05-03T22:12:59.398Z,6.67
2019-05-03T22:18:07.682Z,7.53
2019-05-03T22:23:16.680Z,6.83
2019-05-03T22:28:24.629Z,6.03
2019-05-03T22:33:32.811Z,6.30
2019-05-03T22:38:40.530Z,6.37
2019-05-03T22:43:49.206Z,7.20
2019-05-03T22:48:57.143Z,7.95
2019-05-03T22:54:05.449Z,8.63
2019-05-03T22:59:14.749Z,12.40
2019-05-03T23:04:25.331Z,15.72
2019-05-03T23:09:32.756Z,14.27
2019-05-03T23:14:54.983Z,10.53
2019-05-03T23:20:04.518Z,9.15
2019-05-03T23:25:11.561Z,9.63
2019-05-03T23:35:50.897Z,9.00
2019-05-03T23:41:00.239Z,8.00
2019-05-03T23:46:08.096Z,9.63
2019-05-03T23:51:17.440Z,9.33
2019-05-03T23:56:25.422Z,9.93
